Time;durP1;ratioP1;P1;durP2;ratioP2;P2;SDS_P1;SDS_P2;PMS_P1;PMS_P2;Temp;Humidity;BMP_temperature;BMP_pressure;BME280_temperature;BME280_humidity;BME280_pressure;Samples;Min_cycle;Max_cycle;Signal;HPM_P1;HPM_P2
2022/02/16 00:00:11;;;;;;;6.53;2.13;;;;;;;;;;5044618;28;20033;-71
2022/02/16 00:02:38;;;;;;;5.45;1.30;;;;;;;;;;5044314;28;20107;-71
2022/02/16 00:05:08;;;;;;;5.47;0.98;;;;;;;;;;5044353;28;20212;-71
2022/02/16 00:07:35;;;;;;;7.38;1.40;;;;;;;;;;5043908;28;20030;-71
2022/02/16 00:10:03;;;;;;;6.35;1.55;;;;;;;;;;5043318;28;20326;-71
2022/02/16 00:12:29;;;;;;;4.75;1.48;;;;;;;;;;5044204;28;20088;-71
2022/02/16 00:14:54;;;;;;;9.07;1.60;;;;;;;;;;5044100;28;20409;-71
2022/02/16 00:17:22;;;;;;;6.85;1.98;;;;;;;;;;5043591;28;20061;-71
2022/02/16 00:19:48;;;;;;;6.45;1.63;;;;;;;;;;5043598;28;20034;-71
2022/02/16 00:22:13;;;;;;;6.10;1.95;;;;;;;;;;5043604;28;20037;-71
2022/02/16 00:24:41;;;;;;;7.60;2.15;;;;;;;;;;5043272;28;20040;-71
2022/02/16 00:27:10;;;;;;;6.43;1.70;;;;;;;;;;5043365;28;20045;-71
2022/02/16 00:29:35;;;;;;;9.27;2.90;;;;;;;;;;5025202;28;20029;-71
2022/02/16 00:32:06;;;;;;;6.70;2.15;;;;;;;;;;5042802;28;20037;-71
2022/02/16 00:34:35;;;;;;;7.55;2.85;;;;;;;;;;5043389;28;20029;-71
2022/02/16 00:37:03;;;;;;;7.00;2.75;;;;;;;;;;5042804;28;20021;-71
2022/02/16 00:39:29;;;;;;;6.03;2.50;;;;;;;;;;5043249;28;20065;-70
2022/02/16 00:41:54;;;;;;;7.38;2.65;;;;;;;;;;5025711;28;20029;-70
2022/02/16 00:44:22;;;;;;;7.57;2.97;;;;;;;;;;5043312;28;20036;-70
2022/02/16 00:46:51;;;;;;;8.75;3.45;;;;;;;;;;5042984;28;20029;-70
2022/02/16 00:49:21;;;;;;;9.88;3.42;;;;;;;;;;5043061;28;20030;-70
2022/02/16 00:51:54;;;;;;;5.97;2.83;;;;;;;;;;5043257;28;20477;-70
2022/02/16 00:54:22;;;;;;;6.30;2.83;;;;;;;;;;5025101;28;20057;-71
2022/02/16 00:56:47;;;;;;;6.75;2.90;;;;;;;;;;5025507;28;20183;-71
2022/02/16 00:59:13;;;;;;;5.93;2.67;;;;;;;;;;5042842;28;20034;-70
2022/02/16 01:01:38;;;;;;;6.82;3.47;;;;;;;;;;5025065;28;20025;-70
2022/02/16 01:04:07;;;;;;;6.93;3.25;;;;;;;;;;5043161;28;20056;-70
2022/02/16 01:06:37;;;;;;;8.60;3.60;;;;;;;;;;5042835;28;20368;-71
2022/02/16 01:09:02;;;;;;;6.90;3.20;;;;;;;;;;5043188;28;20022;-70
2022/02/16 01:11:28;;;;;;;7.43;2.97;;;;;;;;;;5043223;28;20021;-71
2022/02/16 01:13:54;;;;;;;4.78;2.78;;;;;;;;;;5042552;28;20049;-70
2022/02/16 01:16:19;;;;;;;6.28;3.47;;;;;;;;;;5042494;28;20025;-70
2022/02/16 01:18:45;;;;;;;6.90;3.13;;;;;;;;;;5042585;28;20048;-70
2022/02/16 01:21:10;;;;;;;6.05;3.20;;;;;;;;;;5042753;28;20040;-71
2022/02/16 01:23:40;;;;;;;10.30;3.65;;;;;;;;;;5042873;28;20029;-71
2022/02/16 01:26:09;;;;;;;7.20;3.05;;;;;;;;;;5042872;28;20040;-70
2022/02/16 01:28:39;;;;;;;9.18;3.40;;;;;;;;;;5042671;28;20492;-70
2022/02/16 01:31:07;;;;;;;11.00;4.10;;;;;;;;;;5043024;28;20025;-71
2022/02/16 01:33:35;;;;;;;9.30;3.75;;;;;;;;;;5042790;28;20068;-70
2022/02/16 01:36:04;;;;;;;8.73;4.15;;;;;;;;;;5042593;28;20039;-70
2022/02/16 01:38:35;;;;;;;7.32;4.38;;;;;;;;;;5042894;28;20042;-70
2022/02/16 01:41:03;;;;;;;7.18;3.78;;;;;;;;;;5042783;28;20032;-71
2022/02/16 01:43:31;;;;;;;9.77;4.30;;;;;;;;;;5024672;28;20030;-70
2022/02/16 01:46:02;;;;;;;10.00;5.10;;;;;;;;;;5024698;28;20029;-71
2022/02/16 01:48:28;;;;;;;8.55;4.43;;;;;;;;;;5046061;28;20472;-70
2022/02/16 01:50:58;;;;;;;12.70;5.65;;;;;;;;;;5046801;28;20029;-70
2022/02/16 01:53:26;;;;;;;10.15;4.47;;;;;;;;;;5028467;28;20029;-70
2022/02/16 01:55:54;;;;;;;10.40;5.85;;;;;;;;;;5046382;28;20023;-71
2022/02/16 01:58:23;;;;;;;9.10;4.70;;;;;;;;;;5046459;28;20052;-70
2022/02/16 02:00:56;;;;;;;11.35;5.95;;;;;;;;;;5046512;28;20049;-70
2022/02/16 02:03:22;;;;;;;10.82;5.72;;;;;;;;;;5046323;28;20037;-70
2022/02/16 02:05:50;;;;;;;11.95;5.53;;;;;;;;;;5046193;28;20040;-71
2022/02/16 02:08:21;;;;;;;14.57;6.43;;;;;;;;;;5028583;28;20086;-71
2022/02/16 02:11:02;;;;;;;12.57;7.00;;;;;;;;;;5028799;28;20386;-70
2022/02/16 02:13:27;;;;;;;11.68;5.82;;;;;;;;;;5045999;28;20112;-70
2022/02/16 02:15:58;;;;;;;14.30;6.93;;;;;;;;;;5045637;28;20087;-71
2022/02/16 02:18:26;;;;;;;10.85;6.25;;;;;;;;;;5045943;28;20058;-70
2022/02/16 02:20:57;;;;;;;11.48;6.13;;;;;;;;;;5045976;28;20041;-71
2022/02/16 02:23:27;;;;;;;12.40;6.88;;;;;;;;;;5046008;28;20033;-71
2022/02/16 02:25:54;;;;;;;12.43;7.10;;;;;;;;;;5046233;28;20033;-69
2022/02/16 02:28:25;;;;;;;13.77;6.88;;;;;;;;;;5046071;28;20036;-70
2022/02/16 02:31:00;;;;;;;11.10;6.30;;;;;;;;;;5045301;28;20038;-70
2022/02/16 02:33:28;;;;;;;10.23;6.25;;;;;;;;;;5045617;28;20033;-70
2022/02/16 02:35:54;;;;;;;11.02;6.22;;;;;;;;;;5045861;28;20033;-70
2022/02/16 02:38:20;;;;;;;11.32;5.85;;;;;;;;;;5045372;28;20032;-70
2022/02/16 02:40:56;;;;;;;13.82;6.78;;;;;;;;;;5045739;28;20036;-70
2022/02/16 02:43:23;;;;;;;11.05;5.72;;;;;;;;;;5045609;28;20033;-70
2022/02/16 02:45:49;;;;;;;11.05;5.80;;;;;;;;;;5045498;28;20032;-70
2022/02/16 02:48:20;;;;;;;10.32;5.75;;;;;;;;;;5027681;28;20029;-70
2022/02/16 02:50:45;;;;;;;7.75;5.07;;;;;;;;;;5045500;28;20033;-70
2022/02/16 02:53:16;;;;;;;10.85;5.47;;;;;;;;;;5027822;28;20076;-70
2022/02/16 02:55:45;;;;;;;10.70;6.13;;;;;;;;;;5045325;28;20022;-70
2022/02/16 02:58:13;;;;;;;12.50;6.07;;;;;;;;;;5045421;28;20040;-70
2022/02/16 03:00:38;;;;;;;9.98;5.72;;;;;;;;;;5045193;28;20057;-71
2022/02/16 03:03:04;;;;;;;8.05;4.53;;;;;;;;;;5045649;28;20025;-70
2022/02/16 03:05:32;;;;;;;11.10;5.78;;;;;;;;;;5027108;28;20029;-70
2022/02/16 03:07:58;;;;;;;8.35;4.80;;;;;;;;;;5045110;28;20036;-70
2022/02/16 03:10:27;;;;;;;9.25;5.88;;;;;;;;;;5044989;28;20033;-70
2022/02/16 03:12:52;;;;;;;9.48;4.75;;;;;;;;;;5027166;28;20056;-71
2022/02/16 03:15:20;;;;;;;11.65;4.88;;;;;;;;;;5044984;28;20148;-70
2022/02/16 03:17:46;;;;;;;13.70;5.13;;;;;;;;;;5043493;28;20121;-71
2022/02/16 03:20:14;;;;;;;9.40;5.68;;;;;;;;;;5044863;28;20069;-70
2022/02/16 03:22:40;;;;;;;11.10;5.25;;;;;;;;;;5044621;28;20037;-70
2022/02/16 03:25:08;;;;;;;10.60;5.00;;;;;;;;;;5044597;28;20040;-70
2022/02/16 03:27:36;;;;;;;7.50;4.57;;;;;;;;;;5026974;28;20030;-70
2022/02/16 03:30:09;;;;;;;9.65;5.35;;;;;;;;;;5044400;28;20072;-70
2022/02/16 03:32:38;;;;;;;9.25;4.93;;;;;;;;;;5026118;28;20109;-70
2022/02/16 03:35:08;;;;;;;12.82;4.53;;;;;;;;;;5026232;28;20042;-70
2022/02/16 03:37:36;;;;;;;11.05;5.13;;;;;;;;;;5026913;28;20026;-70
2022/02/16 03:40:03;;;;;;;12.70;5.85;;;;;;;;;;5026479;28;20494;-70
2022/02/16 03:42:30;;;;;;;11.98;6.05;;;;;;;;;;5044547;28;20148;-71
2022/02/16 03:44:56;;;;;;;9.48;5.05;;;;;;;;;;5044130;28;20042;-71
2022/02/16 03:47:27;;;;;;;8.98;5.63;;;;;;;;;;5044364;28;20121;-70
2022/02/16 03:49:58;;;;;;;10.63;4.78;;;;;;;;;;5043879;28;20033;-71
2022/02/16 03:52:23;;;;;;;11.75;6.10;;;;;;;;;;5026433;28;20041;-71
2022/02/16 03:54:53;;;;;;;11.35;5.93;;;;;;;;;;5044492;28;20037;-70
2022/02/16 03:57:19;;;;;;;11.93;5.63;;;;;;;;;;5044645;28;20125;-71
2022/02/16 03:59:44;;;;;;;10.95;4.95;;;;;;;;;;5026215;28;20029;-70
2022/02/16 04:02:12;;;;;;;11.68;6.57;;;;;;;;;;5044424;28;20087;-70
2022/02/16 04:04:41;;;;;;;11.00;5.07;;;;;;;;;;5026269;28;20033;-71
2022/02/16 04:07:11;;;;;;;10.25;4.80;;;;;;;;;;5044643;28;20120;-70
2022/02/16 04:09:41;;;;;;;11.02;5.82;;;;;;;;;;5043454;28;20025;-70
2022/02/16 04:12:08;;;;;;;15.13;5.97;;;;;;;;;;5044119;28;20033;-70
2022/02/16 04:14:37;;;;;;;12.82;6.03;;;;;;;;;;5044007;28;20099;-70
2022/02/16 04:17:02;;;;;;;10.82;5.65;;;;;;;;;;5043919;28;20124;-70
2022/02/16 04:19:28;;;;;;;8.23;5.43;;;;;;;;;;5043720;28;20057;-70
2022/02/16 04:21:53;;;;;;;10.50;5.97;;;;;;;;;;5043581;28;20436;-70
2022/02/16 04:24:19;;;;;;;12.30;6.70;;;;;;;;;;5043677;28;20037;-71
2022/02/16 04:26:47;;;;;;;10.68;6.65;;;;;;;;;;5025930;28;20033;-70
2022/02/16 04:29:13;;;;;;;10.93;6.97;;;;;;;;;;5043675;28;20026;-71
2022/02/16 04:31:41;;;;;;;6.55;3.95;;;;;;;;;;5043584;28;20036;-71
2022/02/16 04:34:13;;;;;;;9.32;4.82;;;;;;;;;;5025754;28;20100;-71
2022/02/16 04:36:41;;;;;;;16.48;7.10;;;;;;;;;;5043378;28;20073;-71
2022/02/16 04:39:15;;;;;;;11.88;6.50;;;;;;;;;;5042103;28;20041;-71
2022/02/16 04:41:45;;;;;;;14.93;7.43;;;;;;;;;;5026108;28;20559;-71
2022/02/16 04:44:15;;;;;;;12.18;6.15;;;;;;;;;;5043604;28;20036;-71
2022/02/16 04:46:48;;;;;;;9.43;4.15;;;;;;;;;;5043689;28;20029;-71
2022/02/16 04:49:16;;;;;;;8.93;4.38;;;;;;;;;;5025672;28;20033;-71
2022/02/16 04:51:50;;;;;;;7.47;3.75;;;;;;;;;;5043272;28;20041;-71
2022/02/16 04:54:21;;;;;;;11.18;5.75;;;;;;;;;;5043009;28;20044;-71
2022/02/16 04:56:51;;;;;;;11.90;5.00;;;;;;;;;;5043842;28;20041;-71
2022/02/16 04:59:24;;;;;;;5.75;3.42;;;;;;;;;;5043141;28;20025;-72
2022/02/16 05:01:54;;;;;;;10.90;5.63;;;;;;;;;;5025178;28;20092;-71
2022/02/16 05:04:28;;;;;;;12.98;5.68;;;;;;;;;;5025154;28;20060;-70
2022/02/16 05:06:58;;;;;;;12.18;4.97;;;;;;;;;;5043057;28;20056;-71
2022/02/16 05:09:26;;;;;;;11.07;5.40;;;;;;;;;;5042784;28;20448;-70
2022/02/16 05:11:57;;;;;;;7.10;4.22;;;;;;;;;;5042781;28;20420;-71
2022/02/16 05:14:28;;;;;;;4.28;2.83;;;;;;;;;;5042631;28;20030;-70
2022/02/16 05:16:54;;;;;;;10.13;4.25;;;;;;;;;;5042245;28;20029;-69
2022/02/16 05:19:19;;;;;;;12.98;5.65;;;;;;;;;;5043287;28;20036;-70
2022/02/16 05:21:50;;;;;;;14.48;5.72;;;;;;;;;;5042759;28;20606;-70
2022/02/16 05:24:20;;;;;;;9.32;4.53;;;;;;;;;;5025135;28;20037;-70
2022/02/16 05:26:49;;;;;;;6.03;3.28;;;;;;;;;;5043218;28;20041;-69
2022/02/16 05:29:17;;;;;;;8.63;4.15;;;;;;;;;;5043065;28;20033;-70
2022/02/16 05:31:48;;;;;;;7.55;3.55;;;;;;;;;;5025201;28;20029;-70
2022/02/16 05:34:19;;;;;;;8.13;3.50;;;;;;;;;;5043237;28;20595;-70
2022/02/16 05:36:49;;;;;;;7.63;2.88;;;;;;;;;;5042726;28;20037;-70
2022/02/16 05:39:20;;;;;;;8.73;2.85;;;;;;;;;;5024868;28;20060;-70
2022/02/16 05:41:49;;;;;;;5.05;2.40;;;;;;;;;;5043063;28;20041;-70
2022/02/16 05:44:23;;;;;;;2.97;1.92;;;;;;;;;;5042979;28;20033;-70
2022/02/16 05:46:53;;;;;;;6.05;2.65;;;;;;;;;;5043302;28;20075;-70
2022/02/16 05:49:19;;;;;;;5.47;1.83;;;;;;;;;;5025417;28;20072;-70
2022/02/16 05:51:50;;;;;;;7.88;3.17;;;;;;;;;;5042932;28;20030;-70
2022/02/16 05:54:20;;;;;;;7.05;3.08;;;;;;;;;;5042638;28;20079;-70
2022/02/16 05:56:54;;;;;;;3.35;1.30;;;;;;;;;;5042614;28;20033;-69
2022/02/16 05:59:19;;;;;;;6.63;1.75;;;;;;;;;;5057879;28;20088;-70
2022/02/16 06:01:50;;;;;;;3.38;1.20;;;;;;;;;;5024903;28;20083;-70
2022/02/16 06:04:20;;;;;;;3.00;0.90;;;;;;;;;;5042207;28;20029;-70
2022/02/16 06:06:46;;;;;;;4.18;1.42;;;;;;;;;;5023879;28;20041;-70
2022/02/16 06:09:11;;;;;;;7.65;2.88;;;;;;;;;;5042603;28;20041;-70
2022/02/16 06:11:44;;;;;;;8.52;2.13;;;;;;;;;;5024541;28;20481;-70
2022/02/16 06:14:14;;;;;;;4.05;1.50;;;;;;;;;;5041350;28;20021;-71
2022/02/16 06:16:42;;;;;;;3.42;1.85;;;;;;;;;;5042027;28;20053;-71
2022/02/16 06:19:08;;;;;;;5.15;2.53;;;;;;;;;;5024273;28;20034;-70
2022/02/16 06:21:33;;;;;;;10.27;3.50;;;;;;;;;;5042257;28;20099;-70
2022/02/16 06:23:59;;;;;;;8.63;2.35;;;;;;;;;;5042338;28;20025;-70
2022/02/16 06:26:27;;;;;;;3.95;1.40;;;;;;;;;;5042486;28;20021;-72
2022/02/16 06:28:53;;;;;;;4.50;1.90;;;;;;;;;;5042609;28;20040;-70
2022/02/16 06:31:18;;;;;;;7.45;2.35;;;;;;;;;;5024694;28;20093;-70
2022/02/16 06:33:46;;;;;;;6.55;1.42;;;;;;;;;;5043569;28;20029;-71
2022/02/16 06:36:14;;;;;;;10.77;2.55;;;;;;;;;;5028175;28;20021;-70
2022/02/16 06:38:40;;;;;;;3.08;1.95;;;;;;;;;;5060871;28;20049;-71
2022/02/16 06:41:08;;;;;;;9.38;2.40;;;;;;;;;;5046287;28;20037;-71
2022/02/16 06:43:36;;;;;;;2.35;1.73;;;;;;;;;;5045794;28;20106;-72
2022/02/16 06:46:01;;;;;;;9.35;4.00;;;;;;;;;;5028250;28;20026;-70
2022/02/16 06:48:35;;;;;;;5.32;2.58;;;;;;;;;;5045865;28;20076;-71
2022/02/16 06:51:03;;;;;;;;;;;;;;;;;;5046502;28;20037;-71
2022/02/16 06:53:36;;;;;;;7.43;3.22;;;;;;;;;;5045626;28;19909;-72
2022/02/16 06:56:02;;;;;;;6.13;2.33;;;;;;;;;;5045917;28;20037;-71
2022/02/16 06:58:36;;;;;;;3.92;2.22;;;;;;;;;;5045569;28;20037;-71
2022/02/16 07:01:02;;;;;;;3.22;2.10;;;;;;;;;;5045609;28;20029;-70
2022/02/16 07:03:30;;;;;;;8.23;3.55;;;;;;;;;;5044149;28;20115;-71
2022/02/16 07:05:56;;;;;;;7.93;3.58;;;;;;;;;;5044993;28;20068;-71
2022/02/16 07:08:27;;;;;;;6.63;3.35;;;;;;;;;;5026713;28;20100;-72
2022/02/16 07:10:52;;;;;;;7.70;2.95;;;;;;;;;;5045190;28;20103;-73
2022/02/16 07:13:21;;;;;;;6.53;2.72;;;;;;;;;;5045344;28;20507;-71
2022/02/16 07:15:54;;;;;;;8.68;3.20;;;;;;;;;;5044949;28;20029;-71
2022/02/16 07:18:27;;;;;;;9.07;3.08;;;;;;;;;;5027406;28;20556;-71
2022/02/16 07:20:53;;;;;;;7.78;2.65;;;;;;;;;;5060938;28;20044;-73
2022/02/16 07:23:22;;;;;;;10.40;3.47;;;;;;;;;;5045105;28;20029;-71
2022/02/16 07:25:55;;;;;;;7.30;3.67;;;;;;;;;;5045206;28;20033;-72
2022/02/16 07:28:26;;;;;;;10.60;3.05;;;;;;;;;;5044947;28;20497;-70
2022/02/16 07:30:56;;;;;;;6.25;2.70;;;;;;;;;;5045230;28;20025;-71
2022/02/16 07:33:29;;;;;;;10.13;3.42;;;;;;;;;;5044953;28;20484;-71
2022/02/16 07:35:55;;;;;;;7.55;2.38;;;;;;;;;;5044941;28;20053;-73
2022/02/16 07:38:21;;;;;;;6.90;2.72;;;;;;;;;;5044698;28;20044;-72
2022/02/16 07:40:51;;;;;;;5.53;2.78;;;;;;;;;;5044965;28;20123;-70
2022/02/16 07:43:19;;;;;;;5.05;2.28;;;;;;;;;;5044683;28;20112;-72
2022/02/16 07:45:55;;;;;;;6.40;3.15;;;;;;;;;;5027016;28;20031;-72
2022/02/16 07:48:32;;;;;;;9.57;5.25;;;;;;;;;;5059507;28;20339;-71
2022/02/16 07:50:57;;;;;;;5.47;2.17;;;;;;;;;;5044422;28;20037;-71
2022/02/16 07:53:23;;;;;;;4.80;2.95;;;;;;;;;;5044042;28;20116;-71
2022/02/16 07:55:49;;;;;;;16.65;4.82;;;;;;;;;;5043454;28;20056;-70
2022/02/16 07:58:14;;;;;;;5.82;2.88;;;;;;;;;;5044550;28;20035;-71
2022/02/16 08:00:42;;;;;;;10.82;2.72;;;;;;;;;;5044119;28;20029;-71
2022/02/16 08:03:15;;;;;;;5.68;2.58;;;;;;;;;;5044723;28;20030;-71
2022/02/16 08:05:42;;;;;;;10.25;2.95;;;;;;;;;;5043792;28;20413;-71
2022/02/16 08:08:10;;;;;;;4.40;1.83;;;;;;;;;;5044120;28;20045;-71
2022/02/16 08:10:38;;;;;;;8.98;2.60;;;;;;;;;;5025619;28;20475;-71
2022/02/16 08:13:07;;;;;;;5.15;2.45;;;;;;;;;;5044303;28;20037;-71
2022/02/16 08:15:36;;;;;;;10.38;3.83;;;;;;;;;;5043906;28;20041;-71
2022/02/16 08:18:02;;;;;;;10.40;3.03;;;;;;;;;;5044350;28;20036;-70
2022/02/16 08:20:36;;;;;;;5.03;2.45;;;;;;;;;;5026290;28;20038;-71
2022/02/16 08:23:04;;;;;;;12.02;2.10;;;;;;;;;;5044167;28;20029;-70
2022/02/16 08:25:34;;;;;;;8.93;3.20;;;;;;;;;;5043136;28;20101;-71
2022/02/16 08:28:01;;;;;;;8.88;1.85;;;;;;;;;;5026493;28;20489;-70
2022/02/16 08:30:32;;;;;;;6.65;2.20;;;;;;;;;;5043829;28;20029;-72
2022/02/16 08:32:58;;;;;;;11.27;2.58;;;;;;;;;;5044234;28;20022;-71
2022/02/16 08:35:26;;;;;;;5.90;2.47;;;;;;;;;;5043909;28;20026;-71
2022/02/16 08:37:52;;;;;;;11.95;2.30;;;;;;;;;;5043993;28;20479;-71
2022/02/16 08:40:24;;;;;;;8.95;4.38;;;;;;;;;;5043393;28;20122;-71
2022/02/16 08:42:52;;;;;;;6.55;2.13;;;;;;;;;;5059192;28;20025;-71
2022/02/16 08:45:25;;;;;;;6.55;2.50;;;;;;;;;;5059104;28;20093;-71
2022/02/16 08:47:50;;;;;;;5.65;2.63;;;;;;;;;;5043601;28;20089;-71
2022/02/16 08:50:21;;;;;;;8.20;2.10;;;;;;;;;;5043477;28;20034;-72
2022/02/16 08:52:49;;;;;;;8.15;2.45;;;;;;;;;;5043918;28;20037;-71
2022/02/16 08:55:14;;;;;;;6.95;2.20;;;;;;;;;;5058955;28;20025;-71
2022/02/16 08:57:42;;;;;;;10.88;1.80;;;;;;;;;;5043332;28;20033;-71
2022/02/16 09:00:09;;;;;;;5.88;1.60;;;;;;;;;;5043342;28;20021;-71
2022/02/16 09:02:40;;;;;;;5.53;2.55;;;;;;;;;;5043550;28;20039;-71
2022/02/16 09:05:06;;;;;;;3.28;1.77;;;;;;;;;;5043378;28;20105;-71
2022/02/16 09:07:34;;;;;;;5.10;1.75;;;;;;;;;;5043111;28;20568;-71
2022/02/16 09:10:09;;;;;;;5.68;2.53;;;;;;;;;;5025351;28;20056;-71
2022/02/16 09:12:37;;;;;;;2.50;1.70;;;;;;;;;;5025410;28;20060;-71
2022/02/16 09:15:08;;;;;;;4.07;1.48;;;;;;;;;;5043430;28;20163;-72
2022/02/16 09:17:37;;;;;;;8.10;2.83;;;;;;;;;;5043456;28;20327;-71
2022/02/16 09:20:06;;;;;;;12.55;2.42;;;;;;;;;;5043088;28;20029;-72
2022/02/16 09:22:38;;;;;;;7.13;2.35;;;;;;;;;;5042789;28;20113;-71
2022/02/16 09:25:10;;;;;;;14.20;3.75;;;;;;;;;;5042889;28;20055;-72
2022/02/16 09:27:45;;;;;;;3.42;1.70;;;;;;;;;;5024346;28;20030;-72
2022/02/16 09:30:19;;;;;;;5.43;1.67;;;;;;;;;;5042730;28;20029;-72
2022/02/16 09:32:50;;;;;;;3.33;1.88;;;;;;;;;;5042682;28;20040;-72
2022/02/16 09:35:23;;;;;;;10.45;2.47;;;;;;;;;;5043010;28;20096;-72
2022/02/16 09:37:57;;;;;;;3.50;1.40;;;;;;;;;;5024874;28;20052;-71
2022/02/16 09:40:25;;;;;;;8.48;1.80;;;;;;;;;;5042389;28;20045;-72
2022/02/16 09:42:54;;;;;;;5.53;1.08;;;;;;;;;;5024930;28;20030;-71
2022/02/16 09:45:25;;;;;;;9.05;2.28;;;;;;;;;;5042930;28;20037;-72
2022/02/16 09:47:53;;;;;;;4.13;1.13;;;;;;;;;;5042904;28;20029;-71
2022/02/16 09:50:18;;;;;;;4.28;1.40;;;;;;;;;;5024885;28;20052;-72
2022/02/16 09:52:46;;;;;;;12.68;1.10;;;;;;;;;;5042601;28;20059;-71
2022/02/16 09:55:12;;;;;;;3.67;1.67;;;;;;;;;;5042675;28;20065;-72
2022/02/16 09:57:40;;;;;;;5.22;1.52;;;;;;;;;;5043085;28;20425;-72
2022/02/16 10:00:12;;;;;;;2.38;1.27;;;;;;;;;;5042617;28;20046;-72
2022/02/16 10:02:44;;;;;;;3.83;1.70;;;;;;;;;;5024792;28;20079;-71
2022/02/16 10:05:11;;;;;;;3.08;0.82;;;;;;;;;;5042684;28;20029;-72
2022/02/16 10:07:52;;;;;;;6.93;1.58;;;;;;;;;;5041558;28;20081;-72
2022/02/16 10:10:29;;;;;;;10.77;1.35;;;;;;;;;;5046287;28;20026;-72
2022/02/16 10:13:02;;;;;;;3.08;1.20;;;;;;;;;;5046603;28;20521;-72
2022/02/16 10:15:39;;;;;;;3.20;1.23;;;;;;;;;;5046448;28;20051;-71
2022/02/16 10:18:18;;;;;;;8.95;2.20;;;;;;;;;;5046515;28;20025;-72
2022/02/16 10:21:06;;;;;;;10.02;2.20;;;;;;;;;;5046476;28;20039;-71
2022/02/16 10:23:46;;;;;;;6.13;1.65;;;;;;;;;;5046513;28;20037;-71
2022/02/16 10:26:12;;;;;;;3.72;1.60;;;;;;;;;;5046248;28;20033;-72
2022/02/16 10:28:48;;;;;;;11.25;2.20;;;;;;;;;;5028371;28;20045;-72
2022/02/16 10:31:18;;;;;;;5.55;1.75;;;;;;;;;;5046446;28;20029;-72
2022/02/16 10:33:54;;;;;;;6.35;1.38;;;;;;;;;;5046245;28;20044;-72
2022/02/16 10:36:23;;;;;;;8.23;1.67;;;;;;;;;;5028345;28;20034;-72
2022/02/16 10:39:10;;;;;;;3.97;1.98;;;;;;;;;;5045736;28;20139;-72
2022/02/16 10:41:53;;;;;;;6.55;1.80;;;;;;;;;;5028031;28;20040;-71
2022/02/16 10:44:30;;;;;;;8.18;1.77;;;;;;;;;;5045977;28;20075;-72
2022/02/16 10:47:19;;;;;;;5.95;1.80;;;;;;;;;;5028167;28;20033;-72
2022/02/16 10:50:01;;;;;;;1.60;1.15;;;;;;;;;;5028248;28;20477;-71
2022/02/16 10:52:34;;;;;;;6.15;1.40;;;;;;;;;;5045943;28;20033;-71
2022/02/16 10:55:05;;;;;;;3.40;1.77;;;;;;;;;;5060706;28;20124;-71
2022/02/16 10:57:37;;;;;;;5.65;1.33;;;;;;;;;;5045587;28;20029;-72
2022/02/16 11:00:03;;;;;;;4.05;1.83;;;;;;;;;;5045827;28;20025;-71
2022/02/16 11:02:34;;;;;;;9.85;2.40;;;;;;;;;;5045626;28;20025;-72
2022/02/16 11:05:08;;;;;;;3.03;1.30;;;;;;;;;;5027550;28;20025;-71
2022/02/16 11:07:37;;;;;;;7.40;1.70;;;;;;;;;;5045689;28;20034;-71
2022/02/16 11:10:04;;;;;;;6.70;2.80;;;;;;;;;;5045363;28;20091;-72
2022/02/16 11:12:30;;;;;;;6.13;1.98;;;;;;;;;;5027825;28;20029;-72
2022/02/16 11:15:01;;;;;;;5.45;1.75;;;;;;;;;;5045650;28;20033;-71
2022/02/16 11:17:30;;;;;;;17.38;3.53;;;;;;;;;;5045750;28;20072;-71
2022/02/16 11:20:19;;;;;;;3.92;2.22;;;;;;;;;;5044649;28;20039;-71
2022/02/16 11:23:02;;;;;;;10.68;2.67;;;;;;;;;;5044994;28;20496;-71
2022/02/16 11:25:40;;;;;;;7.07;2.08;;;;;;;;;;5027230;28;20034;-72
2022/02/16 11:28:15;;;;;;;5.75;2.50;;;;;;;;;;5045612;28;20037;-71
2022/02/16 11:30:46;;;;;;;12.43;2.78;;;;;;;;;;5045187;28;20108;-71
2022/02/16 11:33:22;;;;;;;5.00;1.70;;;;;;;;;;5045178;28;20358;-71
2022/02/16 11:35:54;;;;;;;9.65;2.47;;;;;;;;;;5026957;28;20029;-71
2022/02/16 11:38:24;;;;;;;8.23;1.75;;;;;;;;;;5044607;28;20034;-71
2022/02/16 11:40:57;;;;;;;13.07;4.20;;;;;;;;;;5045214;28;20034;-71
2022/02/16 11:44:05;;;;;;;9.77;3.55;;;;;;;;;;5044876;28;20033;-71
2022/02/16 11:46:38;;;;;;;9.05;3.10;;;;;;;;;;5044844;28;20025;-71
2022/02/16 11:49:06;;;;;;;10.98;3.28;;;;;;;;;;5044787;28;20462;-71
2022/02/16 11:51:37;;;;;;;13.43;3.63;;;;;;;;;;5044904;28;20088;-71
2022/02/16 11:54:41;;;;;;;11.07;2.92;;;;;;;;;;5026885;28;20156;-71
2022/02/16 11:57:36;;;;;;;9.07;4.07;;;;;;;;;;5044872;28;20037;-72
2022/02/16 12:00:20;;;;;;;8.20;2.85;;;;;;;;;;5044603;28;20024;-71
2022/02/16 12:03:06;;;;;;;6.10;3.00;;;;;;;;;;5044678;28;20033;-72
2022/02/16 12:05:57;;;;;;;10.57;4.10;;;;;;;;;;5044546;28;20081;-72
2022/02/16 12:08:28;;;;;;;7.07;1.63;;;;;;;;;;5044868;28;20088;-72
2022/02/16 12:11:29;;;;;;;16.10;4.15;;;;;;;;;;5026878;28;20031;-73
2022/02/16 12:13:58;;;;;;;5.63;2.75;;;;;;;;;;5044451;28;20021;-70
2022/02/16 12:16:30;;;;;;;11.48;3.42;;;;;;;;;;5044468;28;20085;-71
2022/02/16 12:19:01;;;;;;;9.32;2.92;;;;;;;;;;5044205;28;20037;-71
2022/02/16 12:21:42;;;;;;;8.13;3.40;;;;;;;;;;5044410;28;20049;-71
2022/02/16 12:24:15;;;;;;;12.52;4.60;;;;;;;;;;5025888;28;20029;-71
2022/02/16 12:26:55;;;;;;;11.25;3.65;;;;;;;;;;5043943;28;20053;-71
2022/02/16 12:29:25;;;;;;;17.83;3.63;;;;;;;;;;5058971;28;20025;-70
2022/02/16 12:31:55;;;;;;;9.15;3.13;;;;;;;;;;5043324;28;20032;-70
2022/02/16 12:34:38;;;;;;;6.43;3.03;;;;;;;;;;5043911;28;20040;-71
2022/02/16 12:37:15;;;;;;;16.77;4.22;;;;;;;;;;5043882;28;20099;-71
2022/02/16 12:39:41;;;;;;;9.85;2.78;;;;;;;;;;5043620;28;20064;-70
2022/02/16 12:42:09;;;;;;;10.65;3.67;;;;;;;;;;5043871;28;20073;-71
2022/02/16 12:44:48;;;;;;;10.88;4.65;;;;;;;;;;5043690;28;20032;-71
2022/02/16 12:47:19;;;;;;;6.95;3.17;;;;;;;;;;5043638;28;20030;-71
2022/02/16 12:49:45;;;;;;;12.45;4.53;;;;;;;;;;5044006;28;20029;-71
2022/02/16 12:52:19;;;;;;;12.48;3.88;;;;;;;;;;5059188;28;20088;-70
2022/02/16 12:54:47;;;;;;;13.50;5.72;;;;;;;;;;5059024;28;20495;-70
2022/02/16 12:57:18;;;;;;;9.85;4.57;;;;;;;;;;5043688;28;20025;-71
2022/02/16 13:02:34;;;;;;;12.85;5.80;;;;;;;;;;5042845;28;20068;-71
2022/02/16 13:05:07;;;;;;;15.52;5.70;;;;;;;;;;5043502;28;20053;-71
2022/02/16 13:07:35;;;;;;;11.63;5.10;;;;;;;;;;5043513;28;20048;-71
2022/02/16 13:10:04;;;;;;;13.63;5.97;;;;;;;;;;5043522;28;20033;-71
2022/02/16 13:12:47;;;;;;;10.35;5.13;;;;;;;;;;5043235;28;20493;-71
2022/02/16 13:15:17;;;;;;;14.30;5.50;;;;;;;;;;5025463;28;20491;-71
2022/02/16 13:17:55;;;;;;;17.63;7.40;;;;;;;;;;5042999;28;20065;-71
2022/02/16 13:20:32;;;;;;;11.55;5.75;;;;;;;;;;5043209;28;20031;-71
2022/02/16 13:23:16;;;;;;;13.63;6.30;;;;;;;;;;5043330;28;20030;-71
2022/02/16 13:26:06;;;;;;;15.07;5.90;;;;;;;;;;5042951;28;20469;-71
2022/02/16 13:28:38;;;;;;;21.92;6.50;;;;;;;;;;5041367;28;20040;-71
2022/02/16 13:31:25;;;;;;;12.27;4.97;;;;;;;;;;5042966;28;20049;-71
2022/02/16 13:34:01;;;;;;;16.15;6.10;;;;;;;;;;5042867;28;20067;-71
2022/02/16 13:36:36;;;;;;;10.75;5.80;;;;;;;;;;5025376;28;20047;-71
2022/02/16 13:39:14;;;;;;;12.15;6.15;;;;;;;;;;5042508;28;20084;-72
2022/02/16 13:42:05;;;;;;;15.77;6.43;;;;;;;;;;5043030;28;20080;-72
2022/02/16 13:44:43;;;;;;;14.65;5.95;;;;;;;;;;5047243;28;20068;-72
2022/02/16 13:47:26;;;;;;;14.57;6.53;;;;;;;;;;5046482;28;20083;-72
2022/02/16 13:49:56;;;;;;;10.80;4.78;;;;;;;;;;5045761;28;20112;-72
2022/02/16 13:52:37;;;;;;;15.73;6.07;;;;;;;;;;5045111;28;20025;-73
2022/02/16 13:55:06;;;;;;;9.55;3.38;;;;;;;;;;5045108;28;20029;-72
2022/02/16 13:57:38;;;;;;;13.30;5.10;;;;;;;;;;5045355;28;20045;-72
2022/02/16 14:00:12;;;;;;;18.20;6.13;;;;;;;;;;5044890;28;20099;-72
2022/02/16 14:02:38;;;;;;;14.27;7.07;;;;;;;;;;5045269;28;20061;-72
2022/02/16 14:05:07;;;;;;;15.02;5.95;;;;;;;;;;5046154;28;20029;-72
2022/02/16 14:07:42;;;;;;;10.27;5.40;;;;;;;;;;5028550;28;20084;-72
2022/02/16 14:10:16;;;;;;;10.65;5.28;;;;;;;;;;5046498;28;20033;-72
2022/02/16 14:12:48;;;;;;;13.13;5.82;;;;;;;;;;5046792;28;20029;-72
2022/02/16 14:15:19;;;;;;;10.82;5.75;;;;;;;;;;5046505;28;20033;-72
2022/02/16 14:17:50;;;;;;;17.13;5.53;;;;;;;;;;5046361;28;20030;-72
2022/02/16 14:20:19;;;;;;;12.38;6.53;;;;;;;;;;5046674;28;20072;-72
2022/02/16 14:22:46;;;;;;;10.05;5.75;;;;;;;;;;5046291;28;20273;-72
2022/02/16 14:25:16;;;;;;;13.43;5.65;;;;;;;;;;5046195;28;20033;-72
2022/02/16 14:27:43;;;;;;;11.13;5.32;;;;;;;;;;5046468;28;20089;-72
2022/02/16 14:30:17;;;;;;;11.40;5.80;;;;;;;;;;5046066;28;20040;-72
2022/02/16 14:32:43;;;;;;;15.05;6.63;;;;;;;;;;5046386;28;20036;-72
2022/02/16 14:35:12;;;;;;;11.95;5.70;;;;;;;;;;5045988;28;20056;-72
2022/02/16 14:37:46;;;;;;;7.90;4.15;;;;;;;;;;5046255;28;20033;-72
2022/02/16 14:40:24;;;;;;;8.60;5.03;;;;;;;;;;5045469;28;20505;-72
2022/02/16 14:42:58;;;;;;;14.40;5.88;;;;;;;;;;5028118;28;20079;-72
2022/02/16 14:45:27;;;;;;;9.88;6.15;;;;;;;;;;5027144;28;20124;-72
2022/02/16 14:47:58;;;;;;;10.07;4.72;;;;;;;;;;5046124;28;20045;-72
2022/02/16 14:50:23;;;;;;;9.38;5.40;;;;;;;;;;5045934;28;20025;-72
2022/02/16 14:52:54;;;;;;;8.38;4.97;;;;;;;;;;5045938;28;20028;-72
2022/02/16 14:55:25;;;;;;;12.77;5.47;;;;;;;;;;5045045;28;20388;-72
2022/02/16 14:57:53;;;;;;;10.15;4.97;;;;;;;;;;5045835;28;20033;-72
2022/02/16 15:00:27;;;;;;;10.50;4.68;;;;;;;;;;5027567;28;20469;-72